createdAt,value
2023-01-13T00:02:17.819Z,6.80
2023-01-13T00:05:04.144Z,6.90
2023-01-13T00:07:49.834Z,6.80
2023-01-13T00:10:36.214Z,6.80
2023-01-13T00:13:26.548Z,6.80
2023-01-13T00:16:15.645Z,6.80
2023-01-13T00:19:01.176Z,6.80
2023-01-13T00:21:46.716Z,6.90
2023-01-13T00:24:32.513Z,6.80
2023-01-13T00:27:17.861Z,6.80
2023-01-13T00:30:04.323Z,6.90
2023-01-13T00:32:50.248Z,6.90
2023-01-13T00:35:35.900Z,6.90
2023-01-13T00:38:21.768Z,6.80
2023-01-13T00:41:10.283Z,6.80
2023-01-13T00:43:55.728Z,6.80
2023-01-13T00:46:41.456Z,6.80
2023-01-13T00:49:26.965Z,6.70
2023-01-13T00:52:12.746Z,6.80
2023-01-13T00:54:58.172Z,6.80
2023-01-13T00:57:43.827Z,6.80
2023-01-13T01:00:33.424Z,6.80
2023-01-13T01:03:19.250Z,6.80
2023-01-13T01:06:12.530Z,6.80
2023-01-13T01:08:58.076Z,6.80
2023-01-13T01:11:43.905Z,6.80
2023-01-13T01:14:29.500Z,6.80
2023-01-13T01:17:14.984Z,6.80
2023-01-13T01:20:00.681Z,6.80
2023-01-13T01:22:46.283Z,6.80
2023-01-13T01:25:33.188Z,6.70
2023-01-13T01:28:20.586Z,6.70
2023-01-13T01:31:15.007Z,6.70
2023-01-13T01:34:01.961Z,6.70
2023-01-13T01:36:47.478Z,6.70
2023-01-13T01:39:33.168Z,6.70
2023-01-13T01:42:37.754Z,6.60
2023-01-13T01:45:25.084Z,6.60
2023-01-13T01:48:12.199Z,6.60
2023-01-13T01:50:57.843Z,6.60
2023-01-13T01:53:43.937Z,6.50
2023-01-13T01:56:30.654Z,6.50
2023-01-13T01:59:16.973Z,6.50
2023-01-13T02:02:03.254Z,6.50
2023-01-13T02:04:53.454Z,6.50
2023-01-13T02:07:41.673Z,6.50
2023-01-13T02:10:30.136Z,6.50
2023-01-13T02:13:15.535Z,6.50
2023-01-13T02:16:15.093Z,6.50
2023-01-13T02:19:41.005Z,6.50
2023-01-13T02:22:46.366Z,6.50
2023-01-13T02:25:31.943Z,6.50
2023-01-13T02:28:32.859Z,6.50
2023-01-13T02:31:37.203Z,6.50
2023-01-13T02:34:35.821Z,6.50
2023-01-13T02:37:28.789Z,6.50
2023-01-13T02:40:45.121Z,6.50
2023-01-13T02:43:57.194Z,6.50
2023-01-13T02:47:01.299Z,6.50
2023-01-13T02:50:00.557Z,6.40
2023-01-13T02:52:55.189Z,6.40
2023-01-13T02:55:48.548Z,6.40
2023-01-13T02:58:36.203Z,6.40
2023-01-13T03:01:22.364Z,6.40
2023-01-13T03:04:34.667Z,6.40
2023-01-13T03:07:39.363Z,6.40
2023-01-13T03:10:49.644Z,6.30
2023-01-13T03:14:26.591Z,6.40
2023-01-13T03:17:27.027Z,6.30
2023-01-13T03:20:19.035Z,6.30
2023-01-13T03:23:13.343Z,6.30
2023-01-13T03:26:17.445Z,6.30
2023-01-13T03:29:25.984Z,6.30
2023-01-13T03:32:20.341Z,6.30
2023-01-13T03:35:18.263Z,6.30
2023-01-13T03:38:16.981Z,6.30
2023-01-13T03:41:10.583Z,6.30
2023-01-13T03:44:27.303Z,6.30
2023-01-13T03:47:29.776Z,6.30
2023-01-13T03:50:20.646Z,6.30
2023-01-13T03:53:15.126Z,6.30
2023-01-13T03:56:44.669Z,6.30
2023-01-13T03:59:35.779Z,6.30
2023-01-13T04:02:27.646Z,6.30
2023-01-13T04:05:14.095Z,6.30
2023-01-13T04:08:14.959Z,6.30
2023-01-13T04:11:10.615Z,6.30
2023-01-13T04:13:58.614Z,6.30
2023-01-13T04:16:44.275Z,6.30
2023-01-13T04:19:29.985Z,6.30
2023-01-13T04:22:15.620Z,6.30
2023-01-13T04:25:01.169Z,6.30
2023-01-13T04:27:46.827Z,6.40
2023-01-13T04:30:32.532Z,6.30
2023-01-13T04:33:19.274Z,6.30
2023-01-13T04:36:05.876Z,6.30
2023-01-13T04:38:51.677Z,6.40
2023-01-13T04:41:55.405Z,6.40
2023-01-13T04:44:40.808Z,6.40
2023-01-13T04:47:26.323Z,6.50
2023-01-13T04:50:12.147Z,6.50
2023-01-13T04:52:57.772Z,6.40
2023-01-13T04:55:44.497Z,6.40
2023-01-13T04:58:29.925Z,6.40
2023-01-13T05:01:15.510Z,6.40
2023-01-13T05:04:02.059Z,6.40
2023-01-13T05:06:47.684Z,6.40
2023-01-13T05:09:33.095Z,6.30
2023-01-13T05:12:37.293Z,6.30
2023-01-13T05:15:41.387Z,6.30
2023-01-13T05:18:29.039Z,6.20
2023-01-13T05:21:33.576Z,6.20
2023-01-13T05:24:37.372Z,6.30
2023-01-13T05:27:23.239Z,6.20
2023-01-13T05:30:09.597Z,6.20
2023-01-13T05:32:55.783Z,6.20
2023-01-13T05:35:43.319Z,6.20
2023-01-13T05:38:29.049Z,6.20
2023-01-13T05:41:33.141Z,6.20
2023-01-13T05:44:18.857Z,6.20
2023-01-13T05:47:04.496Z,6.20
2023-01-13T05:49:50.360Z,6.20
2023-01-13T05:52:35.988Z,6.20
2023-01-13T05:55:21.564Z,6.20
2023-01-13T05:58:08.802Z,6.10
2023-01-13T06:01:04.774Z,6.20
2023-01-13T06:03:50.373Z,6.20
2023-01-13T06:06:35.868Z,6.20
2023-01-13T06:09:22.698Z,6.10
2023-01-13T06:12:13.356Z,6.00
2023-01-13T06:14:59.103Z,6.00
2023-01-13T06:17:44.757Z,6.00
2023-01-13T06:20:30.464Z,6.10
2023-01-13T06:23:16.105Z,6.10
2023-01-13T06:26:11.628Z,6.10
2023-01-13T06:28:57.078Z,6.00
2023-01-13T06:31:43.147Z,6.00
2023-01-13T06:34:28.961Z,6.00
2023-01-13T06:37:20.118Z,6.00
2023-01-13T06:40:07.733Z,6.00
2023-01-13T06:43:16.345Z,6.00
2023-01-13T06:46:02.964Z,6.00
2023-01-13T06:48:48.712Z,6.10
2023-01-13T06:51:34.198Z,6.10
2023-01-13T06:54:19.771Z,6.10
2023-01-13T06:57:05.448Z,6.10
2023-01-13T06:59:51.110Z,6.00
2023-01-13T07:02:36.761Z,6.00
2023-01-13T07:05:22.471Z,6.10
2023-01-13T07:08:10.058Z,6.10
2023-01-13T07:10:56.666Z,6.20
2023-01-13T07:14:01.041Z,6.20
2023-01-13T07:16:47.742Z,6.20
2023-01-13T07:19:33.554Z,6.20
2023-01-13T07:22:19.289Z,6.10
2023-01-13T07:25:05.383Z,6.10
2023-01-13T07:27:50.983Z,6.10
2023-01-13T07:30:37.939Z,6.20
2023-01-13T07:33:23.948Z,6.10
2023-01-13T07:36:10.202Z,5.60
2023-01-13T07:38:56.714Z,6.00
2023-01-13T07:42:01.147Z,6.10
2023-01-13T07:44:46.508Z,6.20
2023-01-13T07:47:32.155Z,6.20
2023-01-13T07:50:18.911Z,6.20
2023-01-13T07:53:04.595Z,6.20
2023-01-13T07:55:50.803Z,6.20
2023-01-13T07:58:37.493Z,6.30
2023-01-13T08:01:23.353Z,6.30
2023-01-13T08:04:09.052Z,6.30
2023-01-13T08:06:54.491Z,6.30
2023-01-13T08:09:40.241Z,6.30
2023-01-13T08:12:53.621Z,6.30
2023-01-13T08:15:43.583Z,6.40
2023-01-13T08:18:29.984Z,6.40
2023-01-13T08:21:16.072Z,6.50
2023-01-13T08:24:01.747Z,6.50
2023-01-13T08:26:47.496Z,6.50
2023-01-13T08:29:33.419Z,6.50
2023-01-13T08:32:19.063Z,6.60
2023-01-13T08:35:04.954Z,6.60
2023-01-13T08:37:51.732Z,6.70
2023-01-13T08:40:39.635Z,6.80
2023-01-13T08:43:25.364Z,6.90
2023-01-13T08:46:12.337Z,7.00
2023-01-13T08:48:58.236Z,7.00
2023-01-13T08:51:44.156Z,7.10
2023-01-13T08:54:29.852Z,7.20
2023-01-13T08:57:15.911Z,7.30
2023-01-13T09:00:01.874Z,7.30
2023-01-13T09:02:47.805Z,7.40
2023-01-13T09:05:35.021Z,7.50
2023-01-13T09:08:20.812Z,7.50
2023-01-13T09:11:26.830Z,7.60
2023-01-13T09:14:12.643Z,7.60
2023-01-13T09:16:59.427Z,7.70
2023-01-13T09:19:45.153Z,7.70
2023-01-13T09:22:31.023Z,7.80
2023-01-13T09:25:16.563Z,7.90
2023-01-13T09:28:02.635Z,8.00
2023-01-13T09:30:48.577Z,8.10
2023-01-13T09:33:52.688Z,8.10
2023-01-13T09:36:38.215Z,8.20
2023-01-13T09:39:23.626Z,8.30
2023-01-13T09:42:52.571Z,8.30
2023-01-13T09:45:53.019Z,8.40
2023-01-13T09:48:51.997Z,8.50
2023-01-13T09:51:49.385Z,8.50
2023-01-13T09:54:41.156Z,8.50
2023-01-13T09:57:29.767Z,8.30
2023-01-13T10:00:36.461Z,8.30
2023-01-13T10:03:33.072Z,8.20
2023-01-13T10:06:24.064Z,8.20
2023-01-13T10:09:42.693Z,8.10
2023-01-13T10:12:49.462Z,8.10
2023-01-13T10:15:34.776Z,8.00
2023-01-13T10:18:28.145Z,8.00
2023-01-13T10:21:19.482Z,7.90
2023-01-13T10:24:11.340Z,8.00
2023-01-13T10:27:17.509Z,8.10
2023-01-13T10:30:21.261Z,8.10
2023-01-13T10:33:21.390Z,8.10
2023-01-13T10:36:16.417Z,8.10
2023-01-13T10:39:14.621Z,8.20
2023-01-13T10:42:04.927Z,8.20
2023-01-13T10:44:55.925Z,8.30
2023-01-13T10:47:42.884Z,8.20
2023-01-13T10:50:29.780Z,8.30
2023-01-13T10:53:26.366Z,8.30
2023-01-13T10:56:18.207Z,8.30
2023-01-13T10:59:18.850Z,8.30
2023-01-13T11:02:25.923Z,8.30
2023-01-13T11:05:25.061Z,8.30
2023-01-13T11:08:20.228Z,8.30
2023-01-13T11:11:38.238Z,8.40
2023-01-13T11:14:41.626Z,8.30
2023-01-13T11:17:48.764Z,8.30
2023-01-13T11:20:38.377Z,8.40
2023-01-13T11:23:37.164Z,8.40
2023-01-13T11:26:33.217Z,8.40
2023-01-13T11:29:27.487Z,8.30
2023-01-13T11:32:18.704Z,8.40
2023-01-13T11:35:16.341Z,8.40
2023-01-13T11:38:14.809Z,8.50
2023-01-13T11:41:15.677Z,8.50
2023-01-13T11:44:33.590Z,8.50
2023-01-13T11:47:23.796Z,8.40
2023-01-13T11:50:28.333Z,8.50
2023-01-13T11:53:32.750Z,8.50
2023-01-13T11:56:58.278Z,8.50
2023-01-13T12:00:00.902Z,8.60
2023-01-13T12:03:23.446Z,8.70
2023-01-13T12:06:30.688Z,8.70
2023-01-13T12:09:16.671Z,8.70
2023-01-13T12:12:34.826Z,8.70
2023-01-13T12:15:31.925Z,8.80
2023-01-13T12:18:25.168Z,8.90
2023-01-13T12:21:28.700Z,8.90
2023-01-13T12:24:27.508Z,8.90
2023-01-13T12:27:38.161Z,8.90
2023-01-13T12:30:40.710Z,8.90
2023-01-13T12:33:29.599Z,8.90
2023-01-13T12:36:52.872Z,8.90
2023-01-13T12:39:57.878Z,9.00
2023-01-13T12:43:25.759Z,8.90
2023-01-13T12:46:23.438Z,8.90
2023-01-13T12:49:20.108Z,9.00
2023-01-13T12:52:18.369Z,9.00
2023-01-13T12:55:09.055Z,9.00
2023-01-13T12:58:06.849Z,9.10
2023-01-13T13:00:58.159Z,9.10
2023-01-13T13:04:09.189Z,9.20
2023-01-13T13:07:29.747Z,9.20
2023-01-13T13:10:32.878Z,9.20
2023-01-13T13:13:43.226Z,9.30
2023-01-13T13:16:29.716Z,9.30
2023-01-13T13:19:18.766Z,9.30
2023-01-13T13:22:17.974Z,9.40
2023-01-13T13:25:03.886Z,9.60
2023-01-13T13:27:55.364Z,9.70
2023-01-13T13:30:53.700Z,9.60
2023-01-13T13:33:52.999Z,9.60
2023-01-13T13:36:46.139Z,9.70
2023-01-13T13:39:51.569Z,9.60
2023-01-13T13:43:01.561Z,9.70
2023-01-13T13:46:10.731Z,9.70
2023-01-13T13:48:57.061Z,9.70
2023-01-13T13:52:03.374Z,9.70
2023-01-13T13:54:53.946Z,9.70
2023-01-13T13:57:42.544Z,9.80
2023-01-13T14:00:38.044Z,9.80
2023-01-13T14:03:29.281Z,9.90
2023-01-13T14:06:24.260Z,9.80
2023-01-13T14:09:17.337Z,9.80
2023-01-13T14:12:08.641Z,9.80
2023-01-13T14:14:57.469Z,9.70
2023-01-13T14:17:42.981Z,9.70
2023-01-13T14:20:29.275Z,9.60
2023-01-13T14:23:20.810Z,9.60
2023-01-13T14:26:14.958Z,9.70
2023-01-13T14:29:02.177Z,9.80
2023-01-13T14:31:53.180Z,9.80
2023-01-13T14:34:39.053Z,9.90
2023-01-13T14:37:40.053Z,9.90
2023-01-13T14:40:38.231Z,9.90
2023-01-13T14:43:25.647Z,9.90
2023-01-13T14:46:12.715Z,9.90
2023-01-13T14:49:01.983Z,9.80
2023-01-13T14:51:47.737Z,9.70
2023-01-13T14:54:58.346Z,9.70
2023-01-13T14:57:44.281Z,9.70
2023-01-13T15:00:30.190Z,9.60
2023-01-13T15:03:18.097Z,9.50
2023-01-13T15:06:26.565Z,9.50
2023-01-13T15:09:13.576Z,9.50
2023-01-13T15:12:27.606Z,9.50
2023-01-13T15:15:22.742Z,9.40
2023-01-13T15:18:16.952Z,9.40
2023-01-13T15:21:02.486Z,9.30
2023-01-13T15:23:48.146Z,9.30
2023-01-13T15:26:35.038Z,9.20
2023-01-13T15:29:22.023Z,9.20
2023-01-13T15:32:21.005Z,9.10
2023-01-13T15:35:07.439Z,9.00
2023-01-13T15:37:54.802Z,9.00
2023-01-13T15:40:41.462Z,9.00
2023-01-13T15:43:45.619Z,8.90
2023-01-13T15:46:40.198Z,8.90
2023-01-13T15:49:34.842Z,8.80
2023-01-13T15:52:24.195Z,8.80
2023-01-13T15:55:10.375Z,8.80
2023-01-13T15:57:55.888Z,8.70
2023-01-13T16:00:42.387Z,8.60
2023-01-13T16:03:28.195Z,8.60
2023-01-13T16:06:21.066Z,8.60
2023-01-13T16:09:07.248Z,8.50
2023-01-13T16:11:52.907Z,8.50
2023-01-13T16:14:38.431Z,8.40
2023-01-13T16:17:29.516Z,8.30
2023-01-13T16:20:18.731Z,8.30
2023-01-13T16:23:04.566Z,8.30
2023-01-13T16:25:50.506Z,8.30
2023-01-13T16:28:36.174Z,8.20
2023-01-13T16:31:29.229Z,8.10
2023-01-13T16:34:14.961Z,8.00
2023-01-13T16:37:01.040Z,8.00
2023-01-13T16:39:50.042Z,8.00
2023-01-13T16:42:35.872Z,7.90
2023-01-13T16:45:21.622Z,7.90
2023-01-13T16:48:19.486Z,7.90
2023-01-13T16:51:06.236Z,7.90
2023-01-13T16:53:52.999Z,7.80
2023-01-13T16:56:39.041Z,7.80
2023-01-13T16:59:24.973Z,7.70
2023-01-13T17:02:15.310Z,7.70
2023-01-13T17:05:01.118Z,7.60
2023-01-13T17:07:47.878Z,7.50
2023-01-13T17:10:33.361Z,7.50
2023-01-13T17:13:19.561Z,7.50
2023-01-13T17:16:06.223Z,7.40
2023-01-13T17:18:54.350Z,7.40
2023-01-13T17:21:39.841Z,7.30
2023-01-13T17:24:25.871Z,7.40
2023-01-13T17:27:12.455Z,7.30
2023-01-13T17:29:58.216Z,7.20
2023-01-13T17:32:43.870Z,7.10
2023-01-13T17:35:29.499Z,7.10
2023-01-13T17:38:15.005Z,7.10
2023-01-13T17:41:04.702Z,7.10
2023-01-13T17:43:50.123Z,7.10
2023-01-13T17:46:35.776Z,7.10
2023-01-13T17:49:22.011Z,7.10
2023-01-13T17:52:07.787Z,7.00
2023-01-13T17:54:53.490Z,7.00
2023-01-13T17:57:40.910Z,6.90
2023-01-13T18:00:29.803Z,6.80
2023-01-13T18:03:17.000Z,6.80
2023-01-13T18:06:04.956Z,6.80
2023-01-13T18:08:50.894Z,6.70
2023-01-13T18:11:36.643Z,6.70
2023-01-13T18:14:22.569Z,6.60
2023-01-13T18:17:08.482Z,6.60
2023-01-13T18:20:12.695Z,6.60
2023-01-13T18:23:16.703Z,6.60
2023-01-13T18:26:50.547Z,6.60
2023-01-13T18:29:35.973Z,6.50
2023-01-13T18:32:23.759Z,6.50
2023-01-13T18:35:10.528Z,6.40
2023-01-13T18:37:56.320Z,6.50
2023-01-13T18:40:44.163Z,6.40
2023-01-13T18:43:33.207Z,6.50
2023-01-13T18:46:18.750Z,6.40
2023-01-13T18:49:04.557Z,6.40
2023-01-13T18:51:50.368Z,6.40
2023-01-13T18:54:41.186Z,6.40
2023-01-13T18:57:26.881Z,6.40
2023-01-13T19:00:17.179Z,6.40
2023-01-13T19:05:51.449Z,6.30
2023-01-13T19:08:37.490Z,6.30
2023-01-13T19:11:24.257Z,6.20
2023-01-13T19:14:09.861Z,6.20
2023-01-13T19:16:55.277Z,6.20
2023-01-13T19:19:43.978Z,6.30
2023-01-13T19:22:34.879Z,6.30
2023-01-13T19:25:20.492Z,6.30
2023-01-13T19:28:06.076Z,6.30
2023-01-13T19:30:52.474Z,6.20
2023-01-13T19:33:39.936Z,6.20
2023-01-13T19:36:26.910Z,6.20
2023-01-13T19:39:12.573Z,6.10
2023-01-13T19:42:16.814Z,6.10
2023-01-13T19:45:22.002Z,6.00
2023-01-13T19:48:08.591Z,6.00
2023-01-13T19:50:54.321Z,5.90
2023-01-13T19:53:40.539Z,5.90
2023-01-13T19:56:26.602Z,5.90
2023-01-13T19:59:19.053Z,5.90
2023-01-13T20:02:04.941Z,5.80
2023-01-13T20:04:50.492Z,5.80
2023-01-13T20:07:36.380Z,5.80
2023-01-13T20:10:24.387Z,5.80
2023-01-13T20:13:09.971Z,5.80
2023-01-13T20:15:55.705Z,5.80
2023-01-13T20:18:41.301Z,5.90
2023-01-13T20:21:27.031Z,5.80
2023-01-13T20:24:17.130Z,5.70
2023-01-13T20:27:03.827Z,5.60
2023-01-13T20:29:49.197Z,5.60
2023-01-13T20:32:35.899Z,5.50
2023-01-13T20:35:21.349Z,5.50
2023-01-13T20:38:06.997Z,5.40
2023-01-13T20:40:59.891Z,5.40
2023-01-13T20:43:45.257Z,5.40
2023-01-13T20:46:30.826Z,5.40
2023-01-13T20:49:16.565Z,5.40
2023-01-13T20:52:05.192Z,5.40
2023-01-13T20:54:51.105Z,5.40
2023-01-13T20:57:37.154Z,5.30
2023-01-13T21:00:23.027Z,5.30
2023-01-13T21:03:08.566Z,5.30
2023-01-13T21:05:54.192Z,5.30
2023-01-13T21:08:39.810Z,5.20
2023-01-13T21:11:45.772Z,5.20
2023-01-13T21:14:49.966Z,5.20
2023-01-13T21:17:56.389Z,5.20
2023-01-13T21:20:41.848Z,5.20
2023-01-13T21:23:27.683Z,5.20
2023-01-13T21:26:15.721Z,5.20
2023-01-13T21:29:02.494Z,5.20
2023-01-13T21:31:48.181Z,5.20
2023-01-13T21:34:35.408Z,5.20
2023-01-13T21:37:20.910Z,5.20
2023-01-13T21:40:08.217Z,5.20
2023-01-13T21:43:12.363Z,5.20
2023-01-13T21:46:16.577Z,5.30
2023-01-13T21:49:03.006Z,5.30
2023-01-13T21:51:48.791Z,5.30
2023-01-13T21:54:34.457Z,5.10
2023-01-13T21:57:19.852Z,5.20
2023-01-13T22:00:06.150Z,5.00
2023-01-13T22:02:52.874Z,4.90
2023-01-13T22:05:38.805Z,4.80
2023-01-13T22:08:24.624Z,4.80
2023-01-13T22:11:10.236Z,4.80
2023-01-13T22:14:09.671Z,4.80
2023-01-13T22:16:59.635Z,4.80
2023-01-13T22:19:47.781Z,4.80
2023-01-13T22:22:36.759Z,4.90
2023-01-13T22:25:23.629Z,4.90
2023-01-13T22:28:09.581Z,4.90
2023-01-13T22:30:55.313Z,4.90
2023-01-13T22:33:42.281Z,4.80
2023-01-13T22:36:28.236Z,4.80
2023-01-13T22:39:13.630Z,4.80
2023-01-13T22:41:59.268Z,4.80
2023-01-13T22:44:44.835Z,4.80
2023-01-13T22:47:31.351Z,4.90
2023-01-13T22:50:20.675Z,4.80
2023-01-13T22:53:06.071Z,4.80
2023-01-13T22:55:59.175Z,4.70
2023-01-13T22:58:45.263Z,4.80
2023-01-13T23:01:33.418Z,4.70
2023-01-13T23:04:19.211Z,4.80
2023-01-13T23:07:04.696Z,4.80
2023-01-13T23:09:50.244Z,4.80
2023-01-13T23:12:35.799Z,4.80
2023-01-13T23:15:21.291Z,4.80
2023-01-13T23:18:06.870Z,4.80
2023-01-13T23:20:52.404Z,4.80
2023-01-13T23:23:38.275Z,4.80
2023-01-13T23:26:24.320Z,4.80
2023-01-13T23:29:12.687Z,4.70
2023-01-13T23:31:58.510Z,4.60
2023-01-13T23:34:44.020Z,4.60
2023-01-13T23:37:29.682Z,4.60
2023-01-13T23:40:15.216Z,4.60
2023-01-13T23:43:00.902Z,4.60
2023-01-13T23:45:47.292Z,4.60
2023-01-13T23:48:33.556Z,4.60
2023-01-13T23:51:21.283Z,4.70
2023-01-13T23:54:06.875Z,4.60
2023-01-13T23:56:52.688Z,4.70
2023-01-13T23:59:38.403Z,4.60
